Airfield :
LOGIN :

Register | Disclaimer

   EN    FR    IT 

 










Legend :    VFR   Marginal VFR   IFR   Intensive IFR   Very Intensive IFR
Visi :
Ceiling :
>= 8 km
>= 3000ft
5 to 8 km
1000 to 3000 ft
1500m to 5 km
500 to 1000 ft
800 to 1500m
200 to 500 ft
< 800m
< 200 ft
Symbols :   Thunderstorms  Fog  Heavy snow  Heavy precipitations  Wind > 20 kt
SIGMETs :     Misc.  Thunderstorms  Icing  Turbulence  Mountain Waves  Volcanic Ashes






- Airport Elevation : 362 ft
- IATA code : WAW


EPWA - Warsaw Okecie

CURRENT METAR :
  • 190130Z 33011KT 9999 SCT012 BKN023 08/06 Q1012 TEMPO BKN012

EXPIRED METARs :
  • 190100Z 33011KT 9999 BKN012 08/07 Q1012 TEMPO BKN009
  • 190030Z 32011KT 9999 SCT009 BKN018 08/07 Q1012 TEMPO BKN009
  • 190000Z 32010KT 9999 BKN009 BKN018 08/07 Q1012 NOSIG
  • 182330Z 32011KT 9999 -RA BKN009 BKN020 08/07 Q1012 NOSIG
  • 182300Z 33011KT 9999 -RA BKN009 BKN020 08/07 Q1012 NOSIG
  • 182230Z 32010KT 9999 -RA BKN008 BKN016 08/07 Q1012 NOSIG

TAF TAF EPWA
Valid from the 19 at 00:00 until the 20 at 00:00 UTC


182330Z 1900/1924 34008KT 9999 BKN025
PROB40
TEMPO 1900/1903 -RA BKN007 BKN012



MET'MAP, your aeronautical weather chart ! - Copyright ORBIFLY December 2007 - Disclaimer

ORBIFLY MET'MAP TEAM :

Programming & Development : Alexandra Zaïnal
Concept & original design : Baudouin d'Aumeries
Assistance for programming : Marc-Olivier Méhu
Technical & hardware support : Manuel Goepfert

Contact : metmap@orbifly.com




SOURCES & CREDITS :

   NOAA